createdAt,value
2022-08-22T00:02:29.258Z,99.90
2022-08-22T00:02:58.381Z,99.90
2022-08-22T00:03:15.702Z,99.90
2022-08-22T00:05:26.525Z,99.90
2022-08-22T00:08:11.309Z,99.90
2022-08-22T00:10:44.590Z,99.90
2022-08-22T00:13:24.189Z,99.90
2022-08-22T00:15:51.702Z,99.90
2022-08-22T00:18:43.739Z,99.90
2022-08-22T00:21:43.165Z,99.90
2022-08-22T00:24:37.692Z,99.90
2022-08-22T00:27:45.016Z,99.90
2022-08-22T00:30:16.889Z,99.90
2022-08-22T00:33:09.166Z,99.90
2022-08-22T00:35:45.323Z,99.90
2022-08-22T00:38:27.683Z,99.90
2022-08-22T00:41:15.025Z,99.90
2022-08-22T00:43:54.790Z,99.90
2022-08-22T00:46:27.735Z,99.90
2022-08-22T00:49:38.856Z,99.90
2022-08-22T00:52:42.373Z,99.90
2022-08-22T00:55:40.497Z,99.90
2022-08-22T00:58:41.392Z,99.90
2022-08-22T01:01:12.022Z,99.90
2022-08-22T01:04:03.944Z,99.90
2022-08-22T01:06:56.211Z,99.90
2022-08-22T01:09:52.080Z,99.90
2022-08-22T01:12:27.451Z,99.90
2022-08-22T01:15:03.039Z,99.90
2022-08-22T01:17:32.647Z,99.90
2022-08-22T01:20:18.542Z,99.90
2022-08-22T01:23:23.154Z,99.90
2022-08-22T01:26:28.653Z,99.90
2022-08-22T01:29:28.454Z,99.90
2022-08-22T01:32:39.384Z,99.90
2022-08-22T01:36:00.756Z,99.90
2022-08-22T01:39:10.458Z,99.90
2022-08-22T01:41:49.103Z,99.90
2022-08-22T01:44:38.234Z,99.90
2022-08-22T01:47:17.259Z,99.90
2022-08-22T01:49:55.938Z,99.90
2022-08-22T01:53:00.883Z,99.90
2022-08-22T01:55:57.560Z,99.90
2022-08-22T01:58:30.066Z,99.90
2022-08-22T02:01:14.259Z,99.90
2022-08-22T02:04:22.190Z,99.90
2022-08-22T02:07:17.573Z,99.90
2022-08-22T02:10:03.390Z,99.90
2022-08-22T02:12:46.040Z,99.90
2022-08-22T02:15:30.424Z,99.90
2022-08-22T02:18:06.939Z,99.90
2022-08-22T02:20:48.670Z,99.90
2022-08-22T02:23:48.037Z,99.90
2022-08-22T02:26:43.441Z,99.90
2022-08-22T02:29:22.614Z,99.90
2022-08-22T02:32:13.992Z,99.90
2022-08-22T02:35:03.650Z,99.90
2022-08-22T02:37:59.798Z,99.90
2022-08-22T02:40:43.606Z,99.90
2022-08-22T02:43:23.380Z,99.90
2022-08-22T02:46:02.046Z,99.90
2022-08-22T02:48:51.022Z,99.90
2022-08-22T02:51:51.956Z,99.90
2022-08-22T02:54:41.832Z,99.90
2022-08-22T02:57:20.129Z,99.90
2022-08-22T03:00:31.384Z,99.90
2022-08-22T03:03:17.249Z,99.90
2022-08-22T03:05:44.759Z,99.90
2022-08-22T03:08:25.618Z,99.90
2022-08-22T03:11:11.658Z,99.90
2022-08-22T03:14:07.420Z,99.90
2022-08-22T03:17:00.527Z,99.90
2022-08-22T03:19:46.442Z,99.90
2022-08-22T03:22:37.555Z,99.90
2022-08-22T03:25:13.428Z,99.90
2022-08-22T03:28:03.560Z,99.90
2022-08-22T03:30:43.554Z,99.90
2022-08-22T03:33:25.424Z,99.90
2022-08-22T03:35:57.225Z,99.90
2022-08-22T03:38:51.563Z,99.90
2022-08-22T03:41:51.097Z,99.90
2022-08-22T03:44:41.419Z,99.90
2022-08-22T03:47:17.733Z,99.90
2022-08-22T03:50:09.133Z,99.90
2022-08-22T03:53:18.977Z,99.90
2022-08-22T03:55:55.236Z,99.90
2022-08-22T03:58:37.412Z,99.90
2022-08-22T04:01:35.355Z,99.90
2022-08-22T04:04:21.819Z,99.90
2022-08-22T04:07:31.678Z,99.90
2022-08-22T04:10:35.566Z,99.90
2022-08-22T04:13:27.455Z,99.90
2022-08-22T04:16:13.317Z,99.90
2022-08-22T04:19:18.320Z,99.90
2022-08-22T04:22:22.807Z,99.90
2022-08-22T04:25:12.398Z,99.90
2022-08-22T04:28:15.603Z,99.90
2022-08-22T04:30:50.622Z,99.90
2022-08-22T04:33:33.328Z,99.90
2022-08-22T04:36:15.497Z,99.90
2022-08-22T04:38:59.750Z,99.90
2022-08-22T04:41:49.570Z,99.90
2022-08-22T04:44:30.689Z,99.90
2022-08-22T04:47:34.517Z,99.90
2022-08-22T04:50:25.470Z,99.90
2022-08-22T04:53:31.593Z,99.90
2022-08-22T04:56:24.022Z,99.90
2022-08-22T04:59:16.421Z,99.90
2022-08-22T05:01:48.144Z,99.90
2022-08-22T05:04:32.146Z,99.90
2022-08-22T05:07:29.163Z,99.90
2022-08-22T05:10:22.901Z,99.90
2022-08-22T05:13:06.146Z,99.90
2022-08-22T05:15:41.405Z,99.90
2022-08-22T05:18:23.821Z,99.90
2022-08-22T05:21:02.864Z,99.90
2022-08-22T05:23:37.492Z,99.90
2022-08-22T05:26:07.745Z,99.90
2022-08-22T05:28:44.065Z,99.90
2022-08-22T05:31:32.764Z,99.90
2022-08-22T05:34:14.598Z,99.90
2022-08-22T05:36:56.199Z,99.90
2022-08-22T05:39:27.821Z,99.90
2022-08-22T05:41:59.092Z,99.90
2022-08-22T05:44:37.599Z,99.90
2022-08-22T05:47:23.675Z,99.90
2022-08-22T05:50:04.976Z,99.90
2022-08-22T05:53:06.755Z,99.90
2022-08-22T05:55:42.240Z,99.90
2022-08-22T05:58:24.585Z,99.90
2022-08-22T06:01:05.163Z,99.90
2022-08-22T06:03:43.778Z,99.90
2022-08-22T06:06:19.564Z,99.90
2022-08-22T06:09:02.123Z,99.90
2022-08-22T06:11:47.307Z,99.90
2022-08-22T06:14:47.524Z,99.90
2022-08-22T06:17:20.904Z,99.90
2022-08-22T06:19:50.797Z,99.90
2022-08-22T06:22:24.032Z,99.90
2022-08-22T06:24:54.240Z,99.90
2022-08-22T06:27:26.155Z,99.90
2022-08-22T06:30:01.465Z,99.90
2022-08-22T06:32:59.587Z,99.90
2022-08-22T06:35:59.135Z,99.90
2022-08-22T06:38:33.430Z,99.90
2022-08-22T06:41:07.027Z,99.90
2022-08-22T06:43:42.472Z,99.90
2022-08-22T06:46:13.232Z,99.90
2022-08-22T06:48:41.558Z,99.90
2022-08-22T06:51:11.061Z,99.90
2022-08-22T06:53:51.353Z,99.90
2022-08-22T06:56:26.418Z,99.90
2022-08-22T06:58:59.412Z,99.90
2022-08-22T07:01:33.376Z,99.90
2022-08-22T07:04:06.083Z,99.90
2022-08-22T07:06:43.935Z,99.90
2022-08-22T07:09:31.596Z,99.90
2022-08-22T07:12:04.028Z,99.90
2022-08-22T07:14:42.027Z,99.90
2022-08-22T07:17:16.511Z,99.90
2022-08-22T07:20:10.836Z,99.90
2022-08-22T07:22:39.461Z,99.90
2022-08-22T07:25:11.317Z,99.90
2022-08-22T07:28:05.493Z,99.90
2022-08-22T07:30:42.931Z,99.90
2022-08-22T07:33:28.460Z,99.90
2022-08-22T07:36:04.082Z,99.90
2022-08-22T07:38:52.467Z,99.90
2022-08-22T07:41:30.040Z,99.90
2022-08-22T07:44:23.469Z,99.90
2022-08-22T07:47:05.676Z,99.90
2022-08-22T07:49:40.274Z,99.90
2022-08-22T07:52:18.454Z,99.90
2022-08-22T07:55:00.258Z,99.90
2022-08-22T07:57:38.370Z,99.90
2022-08-22T08:00:13.995Z,99.90
2022-08-22T08:03:04.498Z,99.90
2022-08-22T08:05:36.507Z,99.90
2022-08-22T08:08:21.488Z,99.90
2022-08-22T08:10:51.074Z,99.90
2022-08-22T08:13:30.225Z,99.90
2022-08-22T08:15:59.742Z,99.90
2022-08-22T08:18:33.936Z,99.90
2022-08-22T08:21:33.620Z,99.90
2022-08-22T08:24:02.131Z,99.90
2022-08-22T08:27:02.666Z,99.90
2022-08-22T08:29:32.111Z,99.90
2022-08-22T08:32:02.306Z,99.90
2022-08-22T08:34:32.463Z,99.90
2022-08-22T08:37:20.435Z,99.90
2022-08-22T08:39:51.434Z,99.90
2022-08-22T08:43:13.831Z,99.90
2022-08-22T08:46:14.561Z,99.90
2022-08-22T08:49:20.502Z,99.90
2022-08-22T08:52:12.495Z,99.90
2022-08-22T08:55:21.921Z,99.90
2022-08-22T08:57:55.519Z,99.90
2022-08-22T09:00:50.169Z,99.90
2022-08-22T09:03:58.788Z,99.90
2022-08-22T09:06:52.868Z,99.90
2022-08-22T09:10:02.962Z,99.90
2022-08-22T09:13:11.051Z,99.90
2022-08-22T09:16:20.925Z,99.90
2022-08-22T09:19:25.623Z,99.90
2022-08-22T09:22:22.193Z,99.90
2022-08-22T09:25:16.449Z,99.90
2022-08-22T09:27:59.687Z,99.90
2022-08-22T09:30:54.103Z,99.90
2022-08-22T09:33:28.832Z,99.90
2022-08-22T09:36:20.404Z,99.90
2022-08-22T09:38:55.338Z,99.90
2022-08-22T09:41:51.607Z,99.90
2022-08-22T09:44:51.044Z,99.90
2022-08-22T09:47:51.346Z,99.90
2022-08-22T09:50:52.717Z,99.90
2022-08-22T09:54:03.611Z,99.90
2022-08-22T09:56:53.538Z,99.90
2022-08-22T09:59:33.610Z,99.90
2022-08-22T10:02:22.664Z,99.90
2022-08-22T10:05:35.133Z,99.90
2022-08-22T10:08:31.399Z,99.90
2022-08-22T10:11:29.007Z,99.90
2022-08-22T10:14:03.251Z,99.90
2022-08-22T10:16:58.126Z,99.90
2022-08-22T10:19:42.556Z,99.90
2022-08-22T10:22:40.033Z,99.90
2022-08-22T10:25:07.556Z,99.90
2022-08-22T10:27:40.728Z,99.90
2022-08-22T10:30:22.118Z,99.90
2022-08-22T10:33:14.329Z,99.90
2022-08-22T10:35:51.080Z,99.90
2022-08-22T10:38:46.865Z,99.90
2022-08-22T10:41:23.088Z,99.90
2022-08-22T10:44:10.900Z,99.90
2022-08-22T10:47:03.143Z,99.90
2022-08-22T10:49:59.051Z,99.90
2022-08-22T10:52:44.951Z,99.90
2022-08-22T10:55:17.444Z,99.90
2022-08-22T10:57:56.477Z,99.90
2022-08-22T11:00:54.604Z,99.90
2022-08-22T11:03:30.092Z,99.90
2022-08-22T11:06:06.920Z,99.90
2022-08-22T11:08:48.878Z,99.90
2022-08-22T11:11:50.424Z,99.90
2022-08-22T11:14:46.149Z,99.90
2022-08-22T11:17:46.393Z,99.90
2022-08-22T11:20:30.237Z,99.90
2022-08-22T11:23:33.983Z,99.90
2022-08-22T11:26:47.110Z,99.90
2022-08-22T11:29:52.180Z,99.90
2022-08-22T11:32:32.662Z,99.90
2022-08-22T11:35:11.843Z,99.90
2022-08-22T11:37:54.949Z,99.90
2022-08-22T11:40:46.894Z,99.90
2022-08-22T11:43:32.715Z,99.90
2022-08-22T11:46:20.048Z,99.90
2022-08-22T11:49:13.008Z,99.90
2022-08-22T11:52:01.034Z,99.90
2022-08-22T11:54:52.636Z,99.90
2022-08-22T11:57:30.014Z,99.90
2022-08-22T12:00:28.143Z,99.90
2022-08-22T12:03:23.351Z,99.20
2022-08-22T12:06:40.402Z,98.90
2022-08-22T12:09:18.861Z,96.30
2022-08-22T12:12:00.094Z,96.90
2022-08-22T12:14:55.412Z,96.10
2022-08-22T12:17:55.132Z,95.90
2022-08-22T12:20:56.403Z,95.00
2022-08-22T12:23:52.891Z,94.20
2022-08-22T12:26:40.595Z,94.40
2022-08-22T12:29:33.516Z,93.50
2022-08-22T12:32:28.653Z,94.00
2022-08-22T12:35:34.542Z,94.40
2022-08-22T12:38:28.134Z,95.30
2022-08-22T12:40:59.120Z,95.40
2022-08-22T12:43:49.496Z,96.10
2022-08-22T12:46:54.689Z,94.30
2022-08-22T12:49:52.569Z,94.10
2022-08-22T12:52:40.201Z,94.10
2022-08-22T12:55:24.831Z,92.30
2022-08-22T12:58:34.040Z,91.90
2022-08-22T13:01:07.097Z,93.70
2022-08-22T13:04:00.685Z,93.60
2022-08-22T13:06:36.925Z,92.90
2022-08-22T13:09:19.913Z,93.50
2022-08-22T13:12:02.607Z,93.10
2022-08-22T13:14:34.037Z,92.40
2022-08-22T13:17:15.191Z,91.60
2022-08-22T13:20:11.273Z,92.50
2022-08-22T13:22:45.652Z,91.80
2022-08-22T13:25:25.495Z,92.30
2022-08-22T13:28:03.693Z,90.40
2022-08-22T13:30:39.618Z,88.90
2022-08-22T13:33:12.679Z,90.60
2022-08-22T13:35:54.098Z,90.60
2022-08-22T13:38:33.105Z,90.20
2022-08-22T13:41:03.692Z,89.60
2022-08-22T13:43:37.966Z,90.60
2022-08-22T13:46:11.062Z,91.50
2022-08-22T13:48:56.700Z,91.40
2022-08-22T13:51:52.121Z,90.40
2022-08-22T13:54:44.963Z,90.10
2022-08-22T13:57:36.615Z,90.10
2022-08-22T14:00:32.311Z,90.20
2022-08-22T14:03:18.864Z,90.30
2022-08-22T14:05:53.918Z,91.70
2022-08-22T14:08:40.982Z,92.90
2022-08-22T14:11:46.723Z,94.10
2022-08-22T14:14:26.620Z,94.60
2022-08-22T14:16:56.978Z,95.80
2022-08-22T14:19:31.936Z,94.80
2022-08-22T14:22:14.502Z,93.50
2022-08-22T14:24:55.507Z,93.10
2022-08-22T14:27:44.096Z,93.70
2022-08-22T14:30:21.019Z,91.90
2022-08-22T14:33:14.247Z,91.90
2022-08-22T14:35:44.851Z,91.80
2022-08-22T14:38:32.789Z,91.80
2022-08-22T14:41:55.466Z,91.50
2022-08-22T14:44:44.253Z,91.70
2022-08-22T14:47:55.187Z,91.70
2022-08-22T14:50:55.376Z,92.40
2022-08-22T14:53:31.074Z,92.00
2022-08-22T14:56:19.089Z,93.10
2022-08-22T14:59:09.617Z,94.00
2022-08-22T15:02:08.800Z,94.60
2022-08-22T15:04:41.762Z,93.90
2022-08-22T15:07:10.563Z,95.00
2022-08-22T15:09:57.059Z,95.20
2022-08-22T15:12:37.669Z,95.30
2022-08-22T15:15:27.142Z,95.20
2022-08-22T15:17:54.736Z,95.00
2022-08-22T15:20:28.500Z,96.40
2022-08-22T15:23:09.652Z,96.60
2022-08-22T15:25:42.749Z,96.90
2022-08-22T15:28:20.473Z,97.10
2022-08-22T15:30:59.976Z,96.60
2022-08-22T15:33:40.297Z,96.80
2022-08-22T15:36:24.208Z,96.80
2022-08-22T15:39:15.772Z,97.20
2022-08-22T15:41:48.889Z,97.00
2022-08-22T15:44:33.955Z,96.90
2022-08-22T15:47:23.736Z,97.10
2022-08-22T15:49:59.501Z,97.10
2022-08-22T15:52:30.793Z,96.50
2022-08-22T15:55:16.789Z,97.70
2022-08-22T15:57:57.580Z,98.30
2022-08-22T16:00:43.422Z,96.70
2022-08-22T16:03:28.218Z,96.80
2022-08-22T16:06:02.080Z,96.70
2022-08-22T16:08:45.159Z,96.80
2022-08-22T16:11:32.257Z,96.50
2022-08-22T16:14:45.010Z,95.80
2022-08-22T16:17:29.856Z,96.70
2022-08-22T16:20:09.964Z,96.20
2022-08-22T16:23:06.543Z,96.40
2022-08-22T16:25:49.018Z,96.00
2022-08-22T16:28:59.069Z,96.30
2022-08-22T16:31:43.965Z,95.20
2022-08-22T16:34:24.938Z,95.10
2022-08-22T16:37:12.297Z,95.50
2022-08-22T16:39:49.841Z,94.90
2022-08-22T16:42:21.993Z,95.00
2022-08-22T16:45:05.376Z,95.00
2022-08-22T16:47:33.404Z,94.30
2022-08-22T16:50:30.841Z,95.10
2022-08-22T16:53:04.541Z,94.80
2022-08-22T16:55:36.055Z,94.60
2022-08-22T16:58:12.371Z,95.70
2022-08-22T17:00:57.935Z,94.90
2022-08-22T17:03:36.540Z,95.30
2022-08-22T17:06:40.527Z,95.40
2022-08-22T17:09:33.303Z,96.00
2022-08-22T17:12:32.858Z,96.00
2022-08-22T17:15:26.209Z,95.20
2022-08-22T17:18:10.680Z,95.40
2022-08-22T17:21:11.663Z,95.90
2022-08-22T17:23:54.364Z,96.10
2022-08-22T17:26:55.960Z,97.00
2022-08-22T17:29:39.198Z,96.60
2022-08-22T17:32:40.109Z,96.90
2022-08-22T17:35:10.257Z,96.90
2022-08-22T17:37:55.658Z,97.80
2022-08-22T17:40:53.149Z,98.90
2022-08-22T17:43:48.669Z,99.00
2022-08-22T17:46:36.053Z,99.80
2022-08-22T17:49:11.858Z,99.90
2022-08-22T17:52:11.941Z,99.90
2022-08-22T17:55:13.314Z,99.90
2022-08-22T17:57:50.987Z,99.90
2022-08-22T18:00:34.520Z,99.90
2022-08-22T18:03:31.626Z,99.90
2022-08-22T18:06:16.709Z,99.90
2022-08-22T18:09:14.823Z,99.90
2022-08-22T18:12:17.131Z,99.90
2022-08-22T18:14:57.275Z,99.90
2022-08-22T18:17:40.165Z,99.90
2022-08-22T18:20:23.797Z,99.90
2022-08-22T18:23:39.829Z,99.90
2022-08-22T18:26:36.729Z,99.90
2022-08-22T18:29:18.945Z,99.90
2022-08-22T18:32:06.954Z,99.90
2022-08-22T18:34:58.134Z,99.90
2022-08-22T18:37:35.466Z,99.90
2022-08-22T18:40:37.614Z,99.90
2022-08-22T18:43:24.192Z,99.90
2022-08-22T18:46:01.534Z,99.90
2022-08-22T18:49:05.422Z,99.90
2022-08-22T18:51:38.293Z,99.90
2022-08-22T18:54:10.685Z,99.90
2022-08-22T18:57:00.871Z,99.90
2022-08-22T18:59:31.222Z,99.90
2022-08-22T19:02:16.129Z,99.90
2022-08-22T19:05:13.842Z,99.90
2022-08-22T19:08:15.521Z,99.90
2022-08-22T19:10:52.526Z,99.90
2022-08-22T19:13:38.127Z,99.90
2022-08-22T19:16:15.600Z,99.90
2022-08-22T19:19:05.708Z,99.90
2022-08-22T19:21:54.589Z,99.90
2022-08-22T19:24:27.512Z,99.90
2022-08-22T19:27:18.436Z,99.90
2022-08-22T19:29:48.181Z,99.90
2022-08-22T19:32:46.341Z,99.90
2022-08-22T19:35:37.556Z,99.90
2022-08-22T19:38:07.753Z,99.90
2022-08-22T19:40:59.176Z,99.90
2022-08-22T19:43:41.995Z,99.90
2022-08-22T19:46:12.714Z,99.90
2022-08-22T19:48:47.449Z,99.90
2022-08-22T19:51:27.982Z,99.90
2022-08-22T19:54:16.312Z,99.90
2022-08-22T19:57:11.024Z,99.90
2022-08-22T19:59:53.075Z,99.90
2022-08-22T20:02:38.615Z,99.90
2022-08-22T20:05:47.375Z,99.90
2022-08-22T20:08:47.551Z,99.90
2022-08-22T20:11:45.390Z,99.90
2022-08-22T20:14:31.122Z,99.90
2022-08-22T20:17:24.400Z,99.90
2022-08-22T20:23:00.876Z,99.90
2022-08-22T20:25:42.442Z,99.90
2022-08-22T20:28:26.142Z,99.90
2022-08-22T20:30:58.899Z,99.90
2022-08-22T20:33:41.834Z,99.90
2022-08-22T20:36:28.005Z,99.90
2022-08-22T20:39:02.929Z,99.90
2022-08-22T20:41:46.161Z,99.90
2022-08-22T20:44:24.590Z,99.90
2022-08-22T20:47:11.279Z,99.90
2022-08-22T20:49:55.654Z,99.90
2022-08-22T20:52:39.058Z,99.90
2022-08-22T20:55:06.631Z,99.90
2022-08-22T20:57:35.407Z,99.90
2022-08-22T21:00:13.190Z,99.90
2022-08-22T21:03:02.762Z,99.90
2022-08-22T21:05:45.096Z,99.90
2022-08-22T21:08:12.485Z,99.90
2022-08-22T21:11:01.096Z,99.90
2022-08-22T21:13:34.826Z,99.90
2022-08-22T21:16:20.990Z,99.90
2022-08-22T21:18:52.202Z,99.90
2022-08-22T21:21:32.245Z,99.90
2022-08-22T21:24:06.583Z,99.90
2022-08-22T21:26:45.878Z,99.90
2022-08-22T21:29:13.488Z,99.90
2022-08-22T21:31:59.092Z,99.90
2022-08-22T21:34:41.259Z,99.90
2022-08-22T21:37:15.556Z,99.90
2022-08-22T21:39:51.230Z,99.90
2022-08-22T21:42:32.400Z,99.90
2022-08-22T21:45:06.535Z,99.90
2022-08-22T21:47:43.406Z,99.90
2022-08-22T21:50:25.646Z,99.90
2022-08-22T21:53:06.560Z,99.90
2022-08-22T21:55:39.222Z,99.90
2022-08-22T21:58:32.598Z,99.90
2022-08-22T22:01:34.876Z,99.90
2022-08-22T22:04:02.688Z,99.90
2022-08-22T22:06:34.192Z,99.90
2022-08-22T22:09:01.961Z,99.90
2022-08-22T22:11:31.354Z,99.90
2022-08-22T22:13:58.952Z,99.90
2022-08-22T22:16:28.677Z,99.90
2022-08-22T22:18:57.533Z,99.90
2022-08-22T22:21:25.400Z,99.90
2022-08-22T22:23:53.837Z,99.90
2022-08-22T22:26:26.674Z,99.90
2022-08-22T22:28:54.855Z,99.90
2022-08-22T22:31:22.540Z,99.90
2022-08-22T22:33:51.387Z,99.90
2022-08-22T22:36:24.613Z,99.90
2022-08-22T22:38:53.477Z,99.90
2022-08-22T22:41:26.115Z,99.90
2022-08-22T22:43:54.988Z,99.90
2022-08-22T22:46:23.530Z,99.90
2022-08-22T22:48:52.209Z,99.90
2022-08-22T22:51:20.089Z,99.90
2022-08-22T22:53:50.131Z,99.90
2022-08-22T22:56:22.504Z,99.90
2022-08-22T22:58:57.475Z,99.90
2022-08-22T23:01:28.687Z,99.90
2022-08-22T23:04:03.272Z,99.90
2022-08-22T23:06:35.220Z,99.90
2022-08-22T23:09:03.628Z,99.90
2022-08-22T23:11:31.015Z,99.90
2022-08-22T23:13:58.960Z,99.90
2022-08-22T23:16:28.061Z,99.90
2022-08-22T23:18:56.566Z,99.90
2022-08-22T23:21:30.982Z,99.90
2022-08-22T23:24:00.272Z,99.90
2022-08-22T23:26:29.429Z,99.90
2022-08-22T23:28:57.789Z,99.90
2022-08-22T23:31:35.965Z,99.90
2022-08-22T23:34:08.782Z,99.90
2022-08-22T23:36:39.827Z,99.90
2022-08-22T23:39:08.771Z,99.90
2022-08-22T23:41:36.952Z,99.90
2022-08-22T23:44:09.917Z,99.90
2022-08-22T23:46:43.009Z,99.90
2022-08-22T23:49:12.857Z,99.90
2022-08-22T23:51:41.457Z,99.90
2022-08-22T23:54:08.996Z,99.90
2022-08-22T23:56:46.241Z,99.90
2022-08-22T23:59:16.844Z,99.90
